Time;durP1;ratioP1;P1;durP2;ratioP2;P2;SDS_P1;SDS_P2;PMS_P1;PMS_P2;Temp;Humidity;BMP_temperature;BMP_pressure;BME280_temperature;BME280_humidity;BME280_pressure;Samples;Min_cycle;Max_cycle;Signal;HPM_P1;HPM_P2
2022/08/20 00:01:41;;;;;;;0.00;0.00;;;20.90;99.90;;;;;;5079331;28;20238;-68
2022/08/20 00:04:08;;;;;;;0.00;0.00;;;20.90;99.90;;;;;;5067480;28;20213;-67
2022/08/20 00:06:36;;;;;;;0.00;0.00;;;20.80;99.90;;;;;;5076536;28;20220;-68
2022/08/20 00:09:04;;;;;;;0.00;0.00;;;20.80;99.90;;;;;;5077237;28;20242;-68
2022/08/20 00:11:32;;;;;;;0.00;0.00;;;20.80;99.90;;;;;;5081180;28;20288;-68
2022/08/20 00:14:02;;;;;;;0.00;0.00;;;20.80;99.90;;;;;;5075063;28;20191;-68
2022/08/20 00:16:32;;;;;;;0.00;0.00;;;20.80;99.90;;;;;;5083224;28;20233;-67
2022/08/20 00:18:59;;;;;;;0.00;0.00;;;20.80;99.90;;;;;;5080725;28;20222;-68
2022/08/20 00:21:26;;;;;;;0.00;0.00;;;20.80;99.90;;;;;;5061724;28;20196;-68
2022/08/20 00:23:56;;;;;;;0.00;0.00;;;20.80;99.90;;;;;;5073422;28;20234;-67
2022/08/20 00:26:24;;;;;;;0.00;0.00;;;20.80;99.90;;;;;;5075278;28;20710;-68
2022/08/20 00:28:52;;;;;;;0.00;0.00;;;20.80;99.90;;;;;;5068993;28;20217;-68
2022/08/20 00:31:21;;;;;;;0.00;0.00;;;20.80;99.90;;;;;;5082393;28;20209;-68
2022/08/20 00:33:49;;;;;;;0.00;0.00;;;20.70;99.90;;;;;;5070412;28;20229;-68
2022/08/20 00:36:17;;;;;;;0.00;0.00;;;20.70;99.90;;;;;;5077174;28;20277;-68
2022/08/20 00:38:46;;;;;;;0.00;0.00;;;20.70;99.90;;;;;;5063330;28;20227;-67
2022/08/20 00:41:17;;;;;;;0.00;0.00;;;20.70;99.90;;;;;;5060781;28;20210;-67
2022/08/20 00:43:46;;;;;;;0.00;0.00;;;20.70;99.90;;;;;;5072388;28;20198;-67
2022/08/20 00:46:17;;;;;;;0.00;0.00;;;20.70;99.90;;;;;;5067714;28;20195;-67
2022/08/20 00:48:49;;;;;;;0.00;0.00;;;20.70;99.90;;;;;;5069683;28;20226;-68
2022/08/20 00:51:26;;;;;;;0.00;0.00;;;20.70;99.90;;;;;;5076335;28;20263;-68
2022/08/20 00:53:56;;;;;;;0.00;0.00;;;20.70;99.90;;;;;;5071965;28;20199;-67
2022/08/20 00:56:25;;;;;;;0.00;0.00;;;20.70;99.90;;;;;;5055653;28;20225;-67
2022/08/20 00:58:53;;;;;;;0.00;0.00;;;20.70;99.90;;;;;;5069816;28;20214;-68
2022/08/20 01:01:22;;;;;;;0.00;0.00;;;20.70;99.90;;;;;;5077441;28;20197;-68
2022/08/20 01:03:54;;;;;;;0.00;0.00;;;20.70;99.90;;;;;;5068274;28;20207;-68
2022/08/20 01:06:21;;;;;;;0.00;0.00;;;20.70;99.90;;;;;;5069883;28;20670;-67
2022/08/20 01:08:48;;;;;;;0.00;0.00;;;20.70;99.90;;;;;;5072526;28;20301;-68
2022/08/20 01:11:16;;;;;;;0.00;0.00;;;20.70;99.90;;;;;;5081526;28;20202;-68
2022/08/20 01:13:46;;;;;;;0.00;0.00;;;20.60;99.90;;;;;;5074358;28;20206;-68
2022/08/20 01:16:19;;;;;;;0.00;0.00;;;20.60;99.90;;;;;;5070518;28;20295;-68
2022/08/20 01:18:48;;;;;;;0.00;0.00;;;20.60;99.90;;;;;;5074147;28;20712;-67
2022/08/20 01:21:17;;;;;;;0.00;0.00;;;20.60;99.90;;;;;;5072067;28;20234;-68
2022/08/20 01:23:52;;;;;;;0.00;0.00;;;20.60;99.90;;;;;;5070107;28;20207;-68
2022/08/20 01:26:24;;;;;;;0.00;0.00;;;20.60;99.90;;;;;;5070209;28;20206;-68
2022/08/20 01:28:55;;;;;;;0.00;0.00;;;20.60;99.90;;;;;;5066636;28;20231;-68
2022/08/20 01:31:24;;;;;;;0.00;0.00;;;20.60;99.90;;;;;;5077758;28;20211;-68
2022/08/20 01:33:52;;;;;;;0.00;0.00;;;20.60;99.90;;;;;;5060361;28;20203;-67
2022/08/20 01:36:24;;;;;;;0.00;0.00;;;20.60;99.90;;;;;;5074442;28;20209;-68
2022/08/20 01:38:51;;;;;;;0.00;0.00;;;20.60;99.90;;;;;;5072231;28;20225;-67
2022/08/20 01:41:42;;;;;;;0.00;0.00;;;20.60;99.90;;;;;;5064247;28;20206;-68
2022/08/20 01:44:11;;;;;;;0.00;0.00;;;20.50;99.90;;;;;;5079089;28;20208;-68
2022/08/20 01:46:41;;;;;;;0.00;0.00;;;20.50;99.90;;;;;;5068706;28;20209;-68
2022/08/20 01:49:11;;;;;;;0.00;0.00;;;20.50;99.90;;;;;;5064695;28;20225;-67
2022/08/20 01:51:38;;;;;;;0.00;0.00;;;20.50;99.90;;;;;;5075559;28;20202;-68
2022/08/20 01:54:05;;;;;;;0.00;0.00;;;20.50;99.90;;;;;;5077939;28;20198;-68
2022/08/20 01:56:35;;;;;;;0.00;0.00;;;20.50;99.90;;;;;;5077740;28;20221;-68
2022/08/20 01:59:06;;;;;;;0.00;0.00;;;20.50;99.90;;;;;;5075592;28;20226;-68
2022/08/20 02:01:36;;;;;;;0.00;0.00;;;20.40;99.90;;;;;;5065266;28;20211;-68
2022/08/20 02:04:07;;;;;;;0.00;0.00;;;20.40;99.90;;;;;;5061408;28;20207;-66
2022/08/20 02:06:42;;;;;;;0.00;0.00;;;20.40;99.90;;;;;;5077643;28;20300;-67
2022/08/20 02:09:11;;;;;;;0.00;0.00;;;20.40;99.90;;;;;;5067788;28;20245;-69
2022/08/20 02:11:40;;;;;;;0.00;0.00;;;20.40;99.90;;;;;;5074599;28;20193;-69
2022/08/20 02:14:10;;;;;;;0.00;0.00;;;20.40;99.90;;;;;;5082072;28;20244;-70
2022/08/20 02:16:40;;;;;;;0.00;0.00;;;20.40;99.90;;;;;;5081037;28;20212;-67
2022/08/20 02:19:25;;;;;;;0.00;0.00;;;20.40;99.90;;;;;;5077168;28;20213;-67
2022/08/20 02:21:56;;;;;;;0.00;0.00;;;20.40;99.90;;;;;;5062932;28;20206;-67
2022/08/20 02:24:23;;;;;;;0.00;0.00;;;20.40;99.90;;;;;;5067588;28;20234;-68
2022/08/20 02:26:54;;;;;;;0.00;0.00;;;20.40;99.90;;;;;;5069022;28;20671;-67
2022/08/20 02:29:21;;;;;;;0.00;0.00;;;20.40;99.90;;;;;;5063068;28;20216;-67
2022/08/20 02:31:48;;;;;;;0.00;0.00;;;20.40;99.90;;;;;;5072854;28;20209;-67
2022/08/20 02:34:15;;;;;;;0.00;0.00;;;20.40;99.90;;;;;;5068944;28;20202;-68
2022/08/20 02:36:44;;;;;;;0.00;0.00;;;20.40;99.90;;;;;;5069179;28;20740;-67
2022/08/20 02:39:12;;;;;;;0.00;0.00;;;20.40;99.90;;;;;;5076495;28;20218;-67
2022/08/20 02:41:40;;;;;;;0.00;0.00;;;20.40;99.90;;;;;;5066503;28;20234;-67
2022/08/20 02:44:09;;;;;;;0.00;0.00;;;20.40;99.90;;;;;;5077515;28;20202;-67
2022/08/20 02:46:37;;;;;;;0.00;0.00;;;20.40;99.90;;;;;;5059737;28;20318;-66
2022/08/20 02:49:04;;;;;;;0.00;0.00;;;20.30;99.90;;;;;;5072130;28;20257;-67
2022/08/20 02:51:32;;;;;;;0.00;0.00;;;20.30;99.90;;;;;;5073355;28;20210;-67
2022/08/20 02:53:59;;;;;;;0.00;0.00;;;20.30;99.90;;;;;;5071770;28;20198;-67
2022/08/20 02:56:26;;;;;;;0.00;0.00;;;20.30;99.90;;;;;;5075567;28;20208;-67
2022/08/20 02:58:53;;;;;;;0.00;0.00;;;20.30;99.90;;;;;;5066605;28;20211;-67
2022/08/20 03:01:22;;;;;;;0.00;0.00;;;20.30;99.90;;;;;;5064212;28;20221;-67
2022/08/20 03:03:49;;;;;;;0.00;0.00;;;20.40;99.90;;;;;;5065902;28;20198;-68
2022/08/20 03:06:16;;;;;;;0.00;0.00;;;20.30;99.90;;;;;;5070207;28;20252;-66
2022/08/20 03:08:44;;;;;;;0.00;0.00;;;20.30;99.90;;;;;;5072521;28;20232;-68
2022/08/20 03:11:12;;;;;;;0.00;0.00;;;20.30;99.90;;;;;;5068085;28;20212;-66
2022/08/20 03:13:39;;;;;;;0.00;0.00;;;20.30;99.90;;;;;;5077517;28;20206;-66
2022/08/20 03:16:07;;;;;;;0.00;0.00;;;20.30;99.90;;;;;;5082478;28;20194;-68
2022/08/20 03:18:41;;;;;;;0.00;0.00;;;20.30;99.90;;;;;;5078482;28;20221;-68
2022/08/20 03:21:09;;;;;;;0.00;0.00;;;20.30;99.90;;;;;;5071660;28;20207;-68
2022/08/20 03:23:37;;;;;;;0.00;0.00;;;20.30;99.90;;;;;;5089763;28;20259;-68
2022/08/20 03:26:06;;;;;;;0.00;0.00;;;20.30;99.90;;;;;;5070571;28;20230;-68
2022/08/20 03:28:34;;;;;;;0.00;0.00;;;20.30;99.90;;;;;;5067552;28;20219;-66
2022/08/20 03:31:01;;;;;;;0.00;0.00;;;20.30;99.90;;;;;;5070883;28;20204;-68
2022/08/20 03:33:30;;;;;;;0.00;0.00;;;20.20;99.90;;;;;;5067691;28;20203;-68
2022/08/20 03:35:59;;;;;;;0.00;0.00;;;20.30;99.90;;;;;;5076177;28;20197;-68
2022/08/20 03:38:26;;;;;;;0.00;0.00;;;20.30;99.90;;;;;;5075739;28;20217;-68
2022/08/20 03:40:53;;;;;;;0.00;0.00;;;20.30;99.90;;;;;;5070339;28;20205;-67
2022/08/20 03:43:20;;;;;;;0.00;0.00;;;20.30;99.90;;;;;;5068166;28;20289;-67
2022/08/20 03:45:48;;;;;;;0.00;0.00;;;20.30;99.90;;;;;;5078421;28;20210;-68
2022/08/20 03:48:17;;;;;;;0.00;0.00;;;20.30;99.90;;;;;;5061891;28;20305;-67
2022/08/20 03:50:46;;;;;;;0.00;0.00;;;20.30;99.90;;;;;;5071975;28;20210;-65
2022/08/20 03:53:15;;;;;;;0.00;0.00;;;20.30;99.90;;;;;;5072423;28;20238;-67
2022/08/20 03:55:43;;;;;;;0.00;0.00;;;20.20;99.90;;;;;;5065900;28;20198;-66
2022/08/20 03:58:12;;;;;;;0.00;0.00;;;20.20;99.90;;;;;;5065876;28;20305;-67
2022/08/20 04:00:43;;;;;;;0.00;0.00;;;20.20;99.90;;;;;;5071341;28;20670;-67
2022/08/20 04:03:11;;;;;;;0.00;0.00;;;20.20;99.90;;;;;;5072964;28;20194;-67
2022/08/20 04:05:40;;;;;;;0.00;0.00;;;20.20;99.90;;;;;;5073752;28;20221;-66
2022/08/20 04:08:09;;;;;;;0.00;0.00;;;20.20;99.90;;;;;;5073303;28;20231;-67
2022/08/20 04:10:37;;;;;;;0.00;0.00;;;20.20;99.90;;;;;;5064200;28;20222;-67
2022/08/20 04:13:06;;;;;;;0.00;0.00;;;20.20;99.90;;;;;;5070464;28;20206;-67
2022/08/20 04:15:35;;;;;;;0.00;0.00;;;20.20;99.90;;;;;;5079773;28;20202;-68
2022/08/20 04:18:06;;;;;;;0.00;0.00;;;20.10;99.90;;;;;;5075785;28;20233;-70
2022/08/20 04:20:34;;;;;;;0.00;0.00;;;20.10;99.90;;;;;;5070687;28;20218;-66
2022/08/20 04:23:02;;;;;;;0.00;0.00;;;20.10;99.90;;;;;;5068799;28;20203;-67
2022/08/20 04:25:31;;;;;;;0.00;0.00;;;20.10;99.90;;;;;;5078487;28;20300;-65
2022/08/20 04:28:00;;;;;;;0.00;0.00;;;20.10;99.90;;;;;;5070309;28;20222;-67
2022/08/20 04:30:29;;;;;;;0.00;0.00;;;20.10;99.90;;;;;;5071025;28;20202;-65
2022/08/20 04:32:56;;;;;;;0.00;0.00;;;20.10;99.90;;;;;;5072200;28;20213;-67
2022/08/20 04:35:24;;;;;;;0.00;0.00;;;20.10;99.90;;;;;;5076877;28;20545;-67
2022/08/20 04:37:58;;;;;;;0.00;0.00;;;20.10;99.90;;;;;;5066250;28;20753;-68
2022/08/20 04:43:12;;;;;;;0.00;0.00;;;20.10;99.90;;;;;;5075720;28;20293;-67
2022/08/20 04:45:40;;;;;;;0.00;0.00;;;20.10;99.90;;;;;;5079740;28;20206;-68
2022/08/20 04:48:08;;;;;;;0.00;0.00;;;20.10;99.90;;;;;;5061042;28;20794;-67
2022/08/20 04:50:36;;;;;;;0.00;0.00;;;20.10;99.90;;;;;;5065735;28;20207;-67
2022/08/20 04:53:05;;;;;;;0.00;0.00;;;20.20;99.90;;;;;;5076947;28;20198;-67
2022/08/20 04:55:37;;;;;;;0.00;0.00;;;20.20;99.90;;;;;;5074618;28;20291;-67
2022/08/20 04:58:06;;;;;;;0.00;0.00;;;20.20;99.90;;;;;;5070013;28;20231;-67
2022/08/20 05:00:34;;;;;;;0.00;0.00;;;20.20;99.90;;;;;;5065291;28;20210;-66
2022/08/20 05:03:02;;;;;;;0.00;0.00;;;20.30;99.90;;;;;;5077175;28;20216;-66
2022/08/20 05:05:29;;;;;;;0.00;0.00;;;20.30;99.90;;;;;;5080934;28;20226;-67
2022/08/20 05:07:57;;;;;;;0.00;0.00;;;20.30;99.90;;;;;;5070088;28;20322;-68
2022/08/20 05:10:24;;;;;;;0.00;0.00;;;20.30;99.90;;;;;;5076781;28;20612;-67
2022/08/20 05:12:51;;;;;;;0.00;0.00;;;20.30;99.90;;;;;;5075398;28;20233;-66
2022/08/20 05:15:18;;;;;;;0.00;0.00;;;20.30;99.90;;;;;;5082529;28;20295;-67
2022/08/20 05:17:50;;;;;;;0.00;0.00;;;20.30;99.90;;;;;;5079178;28;20218;-67
2022/08/20 05:20:17;;;;;;;0.00;0.00;;;20.30;99.90;;;;;;5073702;28;20685;-67
2022/08/20 05:22:44;;;;;;;0.00;0.00;;;20.30;99.90;;;;;;5060960;28;20205;-67
2022/08/20 05:25:12;;;;;;;0.00;0.00;;;20.40;99.90;;;;;;5069250;28;20207;-66
2022/08/20 05:27:40;;;;;;;0.00;0.00;;;20.40;99.90;;;;;;5072765;28;20249;-67
2022/08/20 05:30:10;;;;;;;0.00;0.00;;;20.40;99.90;;;;;;5075722;28;20202;-67
2022/08/20 05:32:38;;;;;;;0.00;0.00;;;20.30;99.90;;;;;;5071329;28;20209;-68
2022/08/20 05:35:09;;;;;;;0.00;0.00;;;20.30;99.90;;;;;;5065716;28;20767;-67
2022/08/20 05:37:38;;;;;;;0.00;0.00;;;20.40;99.90;;;;;;5072262;28;20222;-67
2022/08/20 05:40:10;;;;;;;0.00;0.00;;;20.30;99.90;;;;;;5071827;28;20190;-67
2022/08/20 05:42:37;;;;;;;0.00;0.00;;;20.30;99.90;;;;;;5062626;28;20230;-66
2022/08/20 05:45:05;;;;;;;0.00;0.00;;;20.40;99.90;;;;;;5076113;28;20215;-68
2022/08/20 05:47:33;;;;;;;0.00;0.00;;;20.40;99.90;;;;;;5071609;28;20233;-67
2022/08/20 05:50:01;;;;;;;0.00;0.00;;;20.50;99.90;;;;;;5066591;28;20202;-67
2022/08/20 05:52:29;;;;;;;0.00;0.00;;;20.50;99.90;;;;;;5069099;28;20197;-65
2022/08/20 05:54:56;;;;;;;0.00;0.00;;;20.60;99.90;;;;;;5063350;28;20203;-67
2022/08/20 05:57:23;;;;;;;0.00;0.00;;;20.60;99.90;;;;;;5068062;28;20264;-67
2022/08/20 05:59:50;;;;;;;0.00;0.00;;;20.60;99.90;;;;;;5063737;28;20210;-68
2022/08/20 06:05:01;;;;;;;0.00;0.00;;;20.70;99.90;;;;;;5050518;28;20278;-67
2022/08/20 06:07:29;;;;;;;0.00;0.00;;;20.70;99.90;;;;;;5073942;28;20309;-67
2022/08/20 06:09:56;;;;;;;0.00;0.00;;;20.80;99.90;;;;;;5079454;28;20209;-67
2022/08/20 06:12:23;;;;;;;0.00;0.00;;;20.80;99.90;;;;;;5075200;28;20202;-67
2022/08/20 06:14:50;;;;;;;0.00;0.00;;;20.90;99.90;;;;;;5077359;28;20284;-67
2022/08/20 06:17:18;;;;;;;0.00;0.00;;;20.90;99.90;;;;;;5076894;28;20236;-66
2022/08/20 06:19:47;;;;;;;0.00;0.00;;;20.90;99.90;;;;;;5081662;28;20202;-67
2022/08/20 06:22:15;;;;;;;0.00;0.00;;;21.00;99.90;;;;;;5067945;28;20742;-67
2022/08/20 06:24:43;;;;;;;0.00;0.00;;;21.00;99.90;;;;;;5079548;28;20205;-68
2022/08/20 06:27:14;;;;;;;0.00;0.00;;;21.00;99.90;;;;;;5072833;28;20271;-68
2022/08/20 06:29:42;;;;;;;0.00;0.00;;;21.10;99.90;;;;;;5071729;28;20220;-68
2022/08/20 06:32:09;;;;;;;0.00;0.00;;;21.20;99.90;;;;;;5076583;28;20206;-68
2022/08/20 06:34:36;;;;;;;0.00;0.00;;;21.40;99.90;;;;;;5070313;28;20256;-67
2022/08/20 06:37:14;;;;;;;0.00;0.00;;;21.50;99.90;;;;;;5071318;28;20199;-68
2022/08/20 06:39:43;;;;;;;0.00;0.00;;;21.80;99.90;;;;;;5075442;28;20211;-68
2022/08/20 06:42:10;;;;;;;0.00;0.00;;;21.90;99.90;;;;;;5070052;28;20217;-68
2022/08/20 06:44:37;;;;;;;0.00;0.00;;;22.10;99.90;;;;;;5075589;28;20206;-68
2022/08/20 06:47:04;;;;;;;0.00;0.00;;;22.20;99.90;;;;;;5073465;28;20217;-69
2022/08/20 06:49:34;;;;;;;0.00;0.00;;;22.40;99.90;;;;;;5067531;28;20203;-68
2022/08/20 06:52:01;;;;;;;0.00;0.00;;;22.60;99.90;;;;;;5070725;28;20191;-68
2022/08/20 06:54:28;;;;;;;0.00;0.00;;;22.70;99.90;;;;;;5071137;28;20226;-68
2022/08/20 06:56:57;;;;;;;0.00;0.00;;;22.90;99.90;;;;;;5074093;28;20196;-68
2022/08/20 06:59:24;;;;;;;0.00;0.00;;;23.10;99.90;;;;;;5069889;28;20210;-69
2022/08/20 07:01:55;;;;;;;0.00;0.00;;;23.20;99.90;;;;;;5075149;28;20199;-68
2022/08/20 07:04:22;;;;;;;0.00;0.00;;;23.20;99.90;;;;;;5056470;28;20202;-67
2022/08/20 07:06:50;;;;;;;0.00;0.00;;;23.20;99.90;;;;;;5068190;28;20241;-68
2022/08/20 07:09:18;;;;;;;0.00;0.00;;;23.00;99.90;;;;;;5074579;28;20201;-68
2022/08/20 07:11:45;;;;;;;0.00;0.00;;;22.90;99.90;;;;;;5070211;28;20202;-68
2022/08/20 07:14:13;;;;;;;0.00;0.00;;;22.80;99.90;;;;;;5064542;28;20202;-68
2022/08/20 07:16:40;;;;;;;0.00;0.00;;;22.80;99.90;;;;;;5080646;28;20198;-69
2022/08/20 07:19:08;;;;;;;0.00;0.00;;;22.70;99.90;;;;;;5071355;28;20221;-69
2022/08/20 07:21:35;;;;;;;0.00;0.00;;;22.60;99.90;;;;;;5066857;28;20232;-69
2022/08/20 07:24:02;;;;;;;0.00;0.00;;;22.60;99.90;;;;;;5067504;28;20279;-69
2022/08/20 07:26:29;;;;;;;0.00;0.00;;;22.60;99.90;;;;;;5073283;28;20221;-68
2022/08/20 07:28:56;;;;;;;0.00;0.00;;;22.50;99.90;;;;;;5063944;28;20225;-68
2022/08/20 07:34:14;;;;;;;0.00;0.00;;;22.50;99.90;;;;;;4987645;28;20212;-68
2022/08/20 07:36:42;;;;;;;0.00;0.00;;;22.50;99.90;;;;;;5059543;28;20194;-68
2022/08/20 07:39:09;;;;;;;0.00;0.00;;;22.50;99.90;;;;;;5065408;28;20225;-68
2022/08/20 07:41:36;;;;;;;0.00;0.00;;;22.50;99.90;;;;;;5063445;28;20199;-68
2022/08/20 07:44:03;;;;;;;0.00;0.00;;;22.50;99.90;;;;;;5080973;28;20202;-69
2022/08/20 07:46:32;;;;;;;0.00;0.00;;;22.50;99.90;;;;;;5061815;28;20218;-68
2022/08/20 07:48:59;;;;;;;0.00;0.00;;;22.50;99.90;;;;;;5066490;28;20230;-67
2022/08/20 07:51:27;;;;;;;0.00;0.00;;;22.50;99.90;;;;;;5066681;28;20271;-69
2022/08/20 07:53:56;;;;;;;0.00;0.00;;;22.50;99.90;;;;;;5070201;28;20195;-68
2022/08/20 07:56:24;;;;;;;0.00;0.00;;;22.50;99.90;;;;;;5078176;28;20190;-66
2022/08/20 07:58:54;;;;;;;0.00;0.00;;;22.60;99.90;;;;;;5073733;28;20687;-68
2022/08/20 08:01:25;;;;;;;0.00;0.00;;;22.60;99.90;;;;;;5072935;28;20194;-68
2022/08/20 08:03:53;;;;;;;0.00;0.00;;;22.60;99.90;;;;;;5068048;28;20203;-67
2022/08/20 08:06:23;;;;;;;0.00;0.00;;;22.60;99.90;;;;;;5068425;28;20255;-69
2022/08/20 08:08:50;;;;;;;0.00;0.00;;;22.60;99.90;;;;;;5071103;28;20213;-68
2022/08/20 08:11:18;;;;;;;0.00;0.00;;;22.50;99.90;;;;;;5074327;28;20201;-68
2022/08/20 08:13:46;;;;;;;0.00;0.00;;;22.50;99.90;;;;;;5073169;28;20226;-69
2022/08/20 08:16:13;;;;;;;0.00;0.00;;;22.50;99.90;;;;;;5084289;28;20225;-67
2022/08/20 08:18:43;;;;;;;0.00;0.00;;;22.50;99.90;;;;;;5076101;28;20257;-69
2022/08/20 08:21:13;;;;;;;0.00;0.00;;;22.40;99.90;;;;;;5061966;28;20285;-68
2022/08/20 08:23:43;;;;;;;0.00;0.00;;;22.40;99.90;;;;;;5077323;28;20291;-67
2022/08/20 08:26:11;;;;;;;0.00;0.00;;;22.40;99.90;;;;;;5054690;28;20264;-68
2022/08/20 08:28:38;;;;;;;0.00;0.00;;;22.50;99.90;;;;;;5069208;28;20219;-67
2022/08/20 08:31:05;;;;;;;0.00;0.00;;;22.50;99.90;;;;;;5073747;28;20206;-68
2022/08/20 08:33:32;;;;;;;0.00;0.00;;;22.50;99.90;;;;;;5070745;28;20203;-67
2022/08/20 08:36:02;;;;;;;0.00;0.00;;;22.60;99.90;;;;;;5078322;28;20210;-67
2022/08/20 08:38:33;;;;;;;0.00;0.00;;;22.60;99.90;;;;;;5071289;28;20225;-68
2022/08/20 08:41:07;;;;;;;0.00;0.00;;;22.60;99.90;;;;;;5083012;28;20195;-69
2022/08/20 08:43:34;;;;;;;0.00;0.00;;;22.60;99.90;;;;;;5075184;28;20228;-68
2022/08/20 08:46:04;;;;;;;0.00;0.00;;;22.70;99.90;;;;;;5065518;28;20202;-69
2022/08/20 08:48:36;;;;;;;0.00;0.00;;;22.70;99.90;;;;;;5070256;28;20215;-67
2022/08/20 08:51:06;;;;;;;0.00;0.00;;;22.80;99.90;;;;;;5079909;28;20207;-69
2022/08/20 08:53:38;;;;;;;0.00;0.00;;;22.80;99.90;;;;;;5077294;28;20226;-69
2022/08/20 08:56:06;;;;;;;0.00;0.00;;;22.90;99.90;;;;;;5076948;28;20255;-68
2022/08/20 08:58:34;;;;;;;0.00;0.00;;;23.00;99.90;;;;;;5078590;28;20229;-68
2022/08/20 09:01:03;;;;;;;0.00;0.00;;;23.10;99.90;;;;;;5073354;28;20290;-67
2022/08/20 09:03:36;;;;;;;0.00;0.00;;;23.20;99.90;;;;;;5069172;28;20291;-66
2022/08/20 09:06:03;;;;;;;0.00;0.00;;;23.20;99.90;;;;;;5067392;28;20201;-69
2022/08/20 09:08:33;;;;;;;0.00;0.00;;;23.20;99.90;;;;;;5070972;28;20249;-67
2022/08/20 09:11:07;;;;;;;0.00;0.00;;;23.30;99.90;;;;;;5065553;28;20203;-67
2022/08/20 09:13:34;;;;;;;0.00;0.00;;;23.30;99.90;;;;;;5080170;28;20197;-68
2022/08/20 09:16:01;;;;;;;0.00;0.00;;;23.30;99.90;;;;;;5078943;28;20289;-68
2022/08/20 09:18:28;;;;;;;0.00;0.00;;;23.40;99.90;;;;;;5072729;28;20220;-68
2022/08/20 09:20:55;;;;;;;0.00;0.00;;;23.50;99.90;;;;;;5062848;28;20214;-67
2022/08/20 09:23:22;;;;;;;0.00;0.00;;;23.50;99.90;;;;;;5068473;28;20206;-67
2022/08/20 09:25:49;;;;;;;0.00;0.00;;;23.60;99.90;;;;;;5071390;28;20202;-68
2022/08/20 09:28:17;;;;;;;0.00;0.00;;;23.70;99.90;;;;;;5062107;28;20307;-68
2022/08/20 09:30:44;;;;;;;0.00;0.00;;;23.80;99.90;;;;;;5067736;28;20733;-69
2022/08/20 09:33:11;;;;;;;0.00;0.00;;;23.80;99.90;;;;;;5057682;28;20194;-69
2022/08/20 09:35:39;;;;;;;0.00;0.00;;;23.80;99.90;;;;;;5070960;28;20675;-68
2022/08/20 09:38:06;;;;;;;0.00;0.00;;;23.80;99.90;;;;;;5077774;28;20402;-69
2022/08/20 09:40:34;;;;;;;0.00;0.00;;;23.90;99.90;;;;;;5073090;28;20205;-68
2022/08/20 09:43:02;;;;;;;0.00;0.00;;;24.00;99.90;;;;;;5063332;28;20285;-68
2022/08/20 09:45:30;;;;;;;0.00;0.00;;;24.10;99.90;;;;;;5072544;28;20214;-70
2022/08/20 09:47:57;;;;;;;0.00;0.00;;;24.10;99.90;;;;;;5066055;28;20735;-69
2022/08/20 09:50:24;;;;;;;0.00;0.00;;;24.20;99.90;;;;;;5067229;28;20194;-69
2022/08/20 09:52:52;;;;;;;0.00;0.00;;;24.30;99.90;;;;;;5071104;28;20198;-70
2022/08/20 09:55:26;;;;;;;0.00;0.00;;;24.40;99.90;;;;;;5069952;28;20201;-70
2022/08/20 09:57:53;;;;;;;0.00;0.00;;;24.40;99.90;;;;;;5073876;28;20229;-69
2022/08/20 10:00:21;;;;;;;0.00;0.00;;;24.50;99.90;;;;;;5069900;28;20239;-69
2022/08/20 10:02:49;;;;;;;0.00;0.00;;;24.60;99.90;;;;;;5068627;28;20682;-70
2022/08/20 10:05:16;;;;;;;0.00;0.00;;;24.70;99.90;;;;;;5076136;28;20506;-69
2022/08/20 10:07:44;;;;;;;0.00;0.00;;;24.90;99.90;;;;;;5069786;28;20245;-70
2022/08/20 10:10:14;;;;;;;0.00;0.00;;;25.00;99.90;;;;;;5070578;28;20237;-69
2022/08/20 10:12:42;;;;;;;0.00;0.00;;;25.10;99.90;;;;;;5072033;28;20217;-68
2022/08/20 10:15:10;;;;;;;0.00;0.00;;;25.20;99.90;;;;;;5073776;28;20206;-68
2022/08/20 10:17:39;;;;;;;0.00;0.00;;;25.40;99.90;;;;;;5070974;28;20214;-70
2022/08/20 10:20:10;;;;;;;0.00;0.00;;;25.70;99.90;;;;;;5066214;28;20288;-70
2022/08/20 10:22:37;;;;;;;0.00;0.00;;;25.90;99.90;;;;;;5070749;28;20324;-69
2022/08/20 10:25:05;;;;;;;0.00;0.00;;;26.00;99.90;;;;;;5074676;28;20189;-68
2022/08/20 10:27:33;;;;;;;0.00;0.00;;;26.10;99.90;;;;;;5058392;28;20233;-70
2022/08/20 10:30:00;;;;;;;0.00;0.00;;;26.10;99.90;;;;;;5071351;28;20197;-70
2022/08/20 10:32:26;;;;;;;0.00;0.00;;;26.10;99.90;;;;;;5069745;28;20198;-70
2022/08/20 10:34:53;;;;;;;0.00;0.00;;;26.00;99.90;;;;;;5068619;28;20202;-71
2022/08/20 10:37:24;;;;;;;0.00;0.00;;;25.80;99.90;;;;;;5071241;28;20726;-69
2022/08/20 10:39:51;;;;;;;0.00;0.00;;;25.70;99.90;;;;;;5073469;28;20199;-70
2022/08/20 10:42:18;;;;;;;0.00;0.00;;;25.60;99.90;;;;;;5061775;28;20186;-70
2022/08/20 10:44:45;;;;;;;0.00;0.00;;;25.60;99.90;;;;;;5068825;28;20207;-69
2022/08/20 10:47:19;;;;;;;0.00;0.00;;;25.40;99.90;;;;;;5062153;28;20297;-69
2022/08/20 10:49:46;;;;;;;0.00;0.00;;;25.30;99.90;;;;;;5073759;28;20214;-69
2022/08/20 10:52:13;;;;;;;0.00;0.00;;;25.20;99.90;;;;;;5069120;28;20221;-69
2022/08/20 10:54:42;;;;;;;0.00;0.00;;;25.10;99.90;;;;;;5066597;28;20221;-69
2022/08/20 10:57:13;;;;;;;0.00;0.00;;;25.00;99.90;;;;;;5074556;28;20202;-69
2022/08/20 10:59:41;;;;;;;0.00;0.00;;;24.90;99.90;;;;;;5056564;28;20206;-71
2022/08/20 11:02:08;;;;;;;0.00;0.00;;;24.70;99.90;;;;;;5073637;28;20220;-69
2022/08/20 11:04:36;;;;;;;0.00;0.00;;;24.60;99.90;;;;;;5071711;28;20200;-69
2022/08/20 11:07:15;;;;;;;0.00;0.00;;;24.50;99.90;;;;;;5066784;28;20202;-70
2022/08/20 11:09:45;;;;;;;0.00;0.00;;;24.40;99.90;;;;;;5065244;28;20230;-70
2022/08/20 11:12:12;;;;;;;0.00;0.00;;;24.30;99.90;;;;;;5060827;28;20195;-70
2022/08/20 11:14:39;;;;;;;0.00;0.00;;;24.20;99.90;;;;;;5065215;28;20194;-69
2022/08/20 11:17:07;;;;;;;0.00;0.00;;;24.20;99.90;;;;;;5072392;28;20194;-69
2022/08/20 11:19:38;;;;;;;0.00;0.00;;;24.10;99.90;;;;;;5073458;28;20205;-70
2022/08/20 11:22:05;;;;;;;0.00;0.00;;;24.10;99.90;;;;;;5069374;28;20212;-69
2022/08/20 11:24:32;;;;;;;0.00;0.00;;;24.00;99.90;;;;;;5076262;28;20198;-69
2022/08/20 11:27:01;;;;;;;0.00;0.00;;;24.00;99.90;;;;;;5073176;28;20213;-70
2022/08/20 11:29:27;;;;;;;0.00;0.00;;;24.00;99.90;;;;;;5074605;28;20198;-70
2022/08/20 11:31:54;;;;;;;0.00;0.00;;;24.10;99.90;;;;;;5079753;28;20659;-69
2022/08/20 11:34:21;;;;;;;0.00;0.00;;;24.20;99.90;;;;;;5079381;28;20292;-69
2022/08/20 11:36:49;;;;;;;0.00;0.00;;;24.20;99.90;;;;;;5075979;28;20205;-69
2022/08/20 11:39:16;;;;;;;0.00;0.00;;;24.30;99.90;;;;;;5079342;28;20210;-69
2022/08/20 11:41:43;;;;;;;0.00;0.00;;;24.40;99.90;;;;;;5069023;28;20209;-70
2022/08/20 11:44:11;;;;;;;0.00;0.00;;;24.50;99.90;;;;;;5074596;28;20214;-69
2022/08/20 11:46:38;;;;;;;0.00;0.00;;;24.60;99.90;;;;;;5074089;28;20221;-69
2022/08/20 11:49:06;;;;;;;0.00;0.00;;;24.60;99.90;;;;;;5074123;28;20230;-70
2022/08/20 11:51:32;;;;;;;0.00;0.00;;;24.60;99.90;;;;;;5077020;28;20194;-70
2022/08/20 11:54:00;;;;;;;0.00;0.00;;;24.60;99.90;;;;;;5072260;28;20203;-69
2022/08/20 11:56:27;;;;;;;0.00;0.00;;;24.60;99.90;;;;;;5076846;28;20204;-69
2022/08/20 11:58:54;;;;;;;0.00;0.00;;;24.60;99.90;;;;;;5079047;28;20309;-69
2022/08/20 12:01:22;;;;;;;0.00;0.00;;;24.50;99.90;;;;;;5076834;28;20202;-68
2022/08/20 12:03:49;;;;;;;0.00;0.00;;;24.50;99.90;;;;;;5075980;28;20234;-69
2022/08/20 12:06:16;;;;;;;0.00;0.00;;;24.50;99.90;;;;;;5078146;28;20190;-69
2022/08/20 12:08:43;;;;;;;0.00;0.00;;;24.40;99.90;;;;;;5071247;28;20237;-69
2022/08/20 12:11:10;;;;;;;0.00;0.00;;;24.40;99.90;;;;;;5076060;28;20194;-69
2022/08/20 12:13:38;;;;;;;0.00;0.00;;;24.30;99.90;;;;;;5077340;28;20202;-69
2022/08/20 12:16:05;;;;;;;0.00;0.00;;;24.40;99.90;;;;;;5077583;28;20201;-69
2022/08/20 12:18:34;;;;;;;0.00;0.00;;;24.40;99.90;;;;;;5078430;28;20228;-69
2022/08/20 12:21:00;;;;;;;0.00;0.00;;;24.50;99.90;;;;;;5069693;28;20186;-69
2022/08/20 12:23:28;;;;;;;0.00;0.00;;;24.50;99.90;;;;;;5068749;28;20199;-69
2022/08/20 12:25:54;;;;;;;0.00;0.00;;;24.60;99.90;;;;;;5073176;28;20191;-69
2022/08/20 12:28:22;;;;;;;0.00;0.00;;;24.60;99.90;;;;;;5074091;28;20297;-69
2022/08/20 12:30:49;;;;;;;0.00;0.00;;;24.70;99.90;;;;;;5078322;28;20201;-69
2022/08/20 12:33:16;;;;;;;0.00;0.00;;;24.80;99.90;;;;;;5073638;28;20217;-69
2022/08/20 12:35:44;;;;;;;0.00;0.00;;;24.90;99.90;;;;;;5079593;28;20284;-69
2022/08/20 12:38:11;;;;;;;0.00;0.00;;;24.90;99.90;;;;;;5077374;28;20240;-70
2022/08/20 12:40:38;;;;;;;0.00;0.00;;;24.90;99.90;;;;;;5076066;28;20217;-70
2022/08/20 12:43:07;;;;;;;0.00;0.00;;;25.00;99.90;;;;;;5059053;28;20227;-70
2022/08/20 12:45:35;;;;;;;0.00;0.00;;;25.00;99.90;;;;;;5075247;28;20206;-70
2022/08/20 12:48:04;;;;;;;0.00;0.00;;;25.00;99.90;;;;;;5068588;28;20227;-69
2022/08/20 12:50:32;;;;;;;0.00;0.00;;;25.10;99.90;;;;;;5075181;28;20767;-69
2022/08/20 12:53:00;;;;;;;0.00;0.00;;;25.10;99.90;;;;;;5071413;28;20203;-69
2022/08/20 12:55:27;;;;;;;0.00;0.00;;;25.20;99.90;;;;;;5080664;28;20298;-69
2022/08/20 12:57:58;;;;;;;0.00;0.00;;;25.30;99.90;;;;;;5083332;28;20751;-69
2022/08/20 13:00:27;;;;;;;0.00;0.00;;;25.40;99.90;;;;;;5070141;28;20205;-70
2022/08/20 13:02:55;;;;;;;0.00;0.00;;;25.50;99.90;;;;;;5075698;28;20300;-71